sensor_id;sensor_type;location;lat;lon;timestamp;P1;durP1;ratioP1;P2;durP2;ratioP2
1751;SDS011;873;47.696;8.068;2023-04-22T00:00:54;0.00;;;0.00;;
1751;SDS011;873;47.696;8.068;2023-04-22T00:03:20;0.50;;;0.10;;
1751;SDS011;873;47.696;8.068;2023-04-22T00:05:46;0.10;;;0.00;;
1751;SDS011;873;47.696;8.068;2023-04-22T00:08:12;0.00;;;0.00;;
1751;SDS011;873;47.696;8.068;2023-04-22T00:10:38;0.10;;;0.10;;
1751;SDS011;873;47.696;8.068;2023-04-22T00:13:03;0.10;;;0.10;;
1751;SDS011;873;47.696;8.068;2023-04-22T00:15:28;0.20;;;0.10;;
1751;SDS011;873;47.696;8.068;2023-04-22T00:17:54;0.63;;;0.00;;
1751;SDS011;873;47.696;8.068;2023-04-22T00:20:20;0.00;;;0.00;;
1751;SDS011;873;47.696;8.068;2023-04-22T00:22:46;0.03;;;0.00;;
1751;SDS011;873;47.696;8.068;2023-04-22T00:25:11;0.07;;;0.00;;
1751;SDS011;873;47.696;8.068;2023-04-22T00:27:37;0.00;;;0.00;;
1751;SDS011;873;47.696;8.068;2023-04-22T00:30:03;0.63;;;0.20;;
1751;SDS011;873;47.696;8.068;2023-04-22T00:32:29;0.10;;;0.10;;
1751;SDS011;873;47.696;8.068;2023-04-22T00:34:54;0.00;;;0.00;;
1751;SDS011;873;47.696;8.068;2023-04-22T00:37:21;0.43;;;0.07;;
1751;SDS011;873;47.696;8.068;2023-04-22T00:39:49;0.13;;;0.03;;
1751;SDS011;873;47.696;8.068;2023-04-22T00:42:15;0.27;;;0.20;;
1751;SDS011;873;47.696;8.068;2023-04-22T00:44:40;0.10;;;0.00;;
1751;SDS011;873;47.696;8.068;2023-04-22T00:47:07;0.50;;;0.30;;
1751;SDS011;873;47.696;8.068;2023-04-22T00:49:33;0.20;;;0.00;;
1751;SDS011;873;47.696;8.068;2023-04-22T00:51:59;0.27;;;0.10;;
1751;SDS011;873;47.696;8.068;2023-04-22T00:54:25;0.20;;;0.10;;
1751;SDS011;873;47.696;8.068;2023-04-22T00:56:50;0.17;;;0.13;;
1751;SDS011;873;47.696;8.068;2023-04-22T00:59:16;0.10;;;0.10;;
1751;SDS011;873;47.696;8.068;2023-04-22T01:01:41;0.10;;;0.10;;
1751;SDS011;873;47.696;8.068;2023-04-22T01:04:07;0.07;;;0.00;;
1751;SDS011;873;47.696;8.068;2023-04-22T01:06:34;0.00;;;0.00;;
1751;SDS011;873;47.696;8.068;2023-04-22T01:09:01;0.10;;;0.10;;
1751;SDS011;873;47.696;8.068;2023-04-22T01:11:27;0.03;;;0.03;;
1751;SDS011;873;47.696;8.068;2023-04-22T01:13:52;0.10;;;0.10;;
1751;SDS011;873;47.696;8.068;2023-04-22T01:16:18;0.20;;;0.20;;
1751;SDS011;873;47.696;8.068;2023-04-22T01:18:43;0.27;;;0.20;;
1751;SDS011;873;47.696;8.068;2023-04-22T01:21:09;0.40;;;0.40;;
1751;SDS011;873;47.696;8.068;2023-04-22T01:23:35;0.50;;;0.20;;
1751;SDS011;873;47.696;8.068;2023-04-22T01:26:02;0.13;;;0.10;;
1751;SDS011;873;47.696;8.068;2023-04-22T01:28:27;0.43;;;0.10;;
1751;SDS011;873;47.696;8.068;2023-04-22T01:30:53;0.07;;;0.00;;
1751;SDS011;873;47.696;8.068;2023-04-22T01:33:20;0.30;;;0.20;;
1751;SDS011;873;47.696;8.068;2023-04-22T01:35:46;0.10;;;0.10;;
1751;SDS011;873;47.696;8.068;2023-04-22T01:38:12;0.37;;;0.20;;
1751;SDS011;873;47.696;8.068;2023-04-22T01:40:38;0.50;;;0.33;;
1751;SDS011;873;47.696;8.068;2023-04-22T01:43:03;1.60;;;0.30;;
1751;SDS011;873;47.696;8.068;2023-04-22T01:45:29;0.10;;;0.10;;
1751;SDS011;873;47.696;8.068;2023-04-22T01:47:55;0.57;;;0.30;;
1751;SDS011;873;47.696;8.068;2023-04-22T01:50:21;0.00;;;0.00;;
1751;SDS011;873;47.696;8.068;2023-04-22T01:52:47;0.97;;;0.40;;
1751;SDS011;873;47.696;8.068;2023-04-22T01:55:13;0.20;;;0.20;;
1751;SDS011;873;47.696;8.068;2023-04-22T01:57:39;0.10;;;0.10;;
1751;SDS011;873;47.696;8.068;2023-04-22T02:00:05;0.63;;;0.63;;
1751;SDS011;873;47.696;8.068;2023-04-22T02:02:32;0.13;;;0.10;;
1751;SDS011;873;47.696;8.068;2023-04-22T02:04:58;0.20;;;0.20;;
1751;SDS011;873;47.696;8.068;2023-04-22T02:07:23;0.33;;;0.30;;
1751;SDS011;873;47.696;8.068;2023-04-22T02:09:49;0.30;;;0.30;;
1751;SDS011;873;47.696;8.068;2023-04-22T02:12:15;0.57;;;0.20;;
1751;SDS011;873;47.696;8.068;2023-04-22T02:14:41;0.27;;;0.13;;
1751;SDS011;873;47.696;8.068;2023-04-22T02:17:06;0.20;;;0.20;;
1751;SDS011;873;47.696;8.068;2023-04-22T02:19:32;0.60;;;0.30;;
1751;SDS011;873;47.696;8.068;2023-04-22T02:21:57;0.20;;;0.20;;
1751;SDS011;873;47.696;8.068;2023-04-22T02:24:23;0.00;;;0.00;;
1751;SDS011;873;47.696;8.068;2023-04-22T02:26:49;0.43;;;0.30;;
1751;SDS011;873;47.696;8.068;2023-04-22T02:29:14;0.27;;;0.27;;
1751;SDS011;873;47.696;8.068;2023-04-22T02:31:40;0.83;;;0.50;;
1751;SDS011;873;47.696;8.068;2023-04-22T02:34:06;0.20;;;0.20;;
1751;SDS011;873;47.696;8.068;2023-04-22T02:36:31;0.17;;;0.17;;
1751;SDS011;873;47.696;8.068;2023-04-22T02:38:58;0.47;;;0.27;;
1751;SDS011;873;47.696;8.068;2023-04-22T02:41:27;0.30;;;0.20;;
1751;SDS011;873;47.696;8.068;2023-04-22T02:43:52;0.10;;;0.10;;
1751;SDS011;873;47.696;8.068;2023-04-22T02:46:18;0.40;;;0.40;;
1751;SDS011;873;47.696;8.068;2023-04-22T02:48:43;0.57;;;0.33;;
1751;SDS011;873;47.696;8.068;2023-04-22T02:51:09;0.30;;;0.13;;
1751;SDS011;873;47.696;8.068;2023-04-22T02:53:35;0.10;;;0.10;;
1751;SDS011;873;47.696;8.068;2023-04-22T02:56:01;0.07;;;0.07;;
1751;SDS011;873;47.696;8.068;2023-04-22T02:58:27;0.10;;;0.10;;
1751;SDS011;873;47.696;8.068;2023-04-22T03:00:52;0.60;;;0.20;;
1751;SDS011;873;47.696;8.068;2023-04-22T03:03:18;0.77;;;0.30;;
1751;SDS011;873;47.696;8.068;2023-04-22T03:05:43;1.40;;;0.37;;
1751;SDS011;873;47.696;8.068;2023-04-22T03:08:09;1.77;;;0.53;;
1751;SDS011;873;47.696;8.068;2023-04-22T03:10:35;0.73;;;0.50;;
1751;SDS011;873;47.696;8.068;2023-04-22T03:13:01;0.20;;;0.20;;
1751;SDS011;873;47.696;8.068;2023-04-22T03:15:26;0.47;;;0.40;;
1751;SDS011;873;47.696;8.068;2023-04-22T03:17:52;0.73;;;0.17;;
1751;SDS011;873;47.696;8.068;2023-04-22T03:20:18;0.50;;;0.43;;
1751;SDS011;873;47.696;8.068;2023-04-22T03:22:44;0.67;;;0.20;;
1751;SDS011;873;47.696;8.068;2023-04-22T03:25:09;0.20;;;0.20;;
1751;SDS011;873;47.696;8.068;2023-04-22T03:27:35;0.60;;;0.20;;
1751;SDS011;873;47.696;8.068;2023-04-22T03:30:02;0.33;;;0.33;;
1751;SDS011;873;47.696;8.068;2023-04-22T03:32:28;0.40;;;0.30;;
1751;SDS011;873;47.696;8.068;2023-04-22T03:34:54;0.07;;;0.03;;
1751;SDS011;873;47.696;8.068;2023-04-22T03:37:19;0.20;;;0.20;;
1751;SDS011;873;47.696;8.068;2023-04-22T03:39:45;0.30;;;0.17;;
1751;SDS011;873;47.696;8.068;2023-04-22T03:42:11;0.30;;;0.30;;
1751;SDS011;873;47.696;8.068;2023-04-22T03:44:37;0.27;;;0.20;;
1751;SDS011;873;47.696;8.068;2023-04-22T03:47:03;0.10;;;0.10;;
1751;SDS011;873;47.696;8.068;2023-04-22T03:49:28;0.73;;;0.20;;
1751;SDS011;873;47.696;8.068;2023-04-22T03:51:54;0.20;;;0.10;;
1751;SDS011;873;47.696;8.068;2023-04-22T03:54:19;0.30;;;0.20;;
1751;SDS011;873;47.696;8.068;2023-04-22T03:56:45;0.20;;;0.10;;
1751;SDS011;873;47.696;8.068;2023-04-22T03:59:11;0.13;;;0.03;;
1751;SDS011;873;47.696;8.068;2023-04-22T04:01:36;0.10;;;0.10;;
1751;SDS011;873;47.696;8.068;2023-04-22T04:04:01;0.00;;;0.00;;
1751;SDS011;873;47.696;8.068;2023-04-22T04:06:27;0.40;;;0.40;;
1751;SDS011;873;47.696;8.068;2023-04-22T04:08:52;0.10;;;0.10;;
1751;SDS011;873;47.696;8.068;2023-04-22T04:11:18;0.03;;;0.03;;
1751;SDS011;873;47.696;8.068;2023-04-22T04:13:43;0.13;;;0.13;;
1751;SDS011;873;47.696;8.068;2023-04-22T04:16:09;0.17;;;0.17;;
1751;SDS011;873;47.696;8.068;2023-04-22T04:18:34;0.00;;;0.00;;
1751;SDS011;873;47.696;8.068;2023-04-22T04:21:00;0.43;;;0.10;;
1751;SDS011;873;47.696;8.068;2023-04-22T04:23:27;0.10;;;0.10;;
1751;SDS011;873;47.696;8.068;2023-04-22T04:25:53;0.20;;;0.10;;
1751;SDS011;873;47.696;8.068;2023-04-22T04:28:19;0.00;;;0.00;;
1751;SDS011;873;47.696;8.068;2023-04-22T04:30:46;0.50;;;0.40;;
1751;SDS011;873;47.696;8.068;2023-04-22T04:33:12;0.27;;;0.23;;
1751;SDS011;873;47.696;8.068;2023-04-22T04:35:40;0.00;;;0.00;;
1751;SDS011;873;47.696;8.068;2023-04-22T04:38:07;0.30;;;0.30;;
1751;SDS011;873;47.696;8.068;2023-04-22T04:40:33;0.40;;;0.30;;
1751;SDS011;873;47.696;8.068;2023-04-22T04:42:59;0.43;;;0.40;;
1751;SDS011;873;47.696;8.068;2023-04-22T04:45:26;0.10;;;0.10;;
1751;SDS011;873;47.696;8.068;2023-04-22T04:47:53;0.50;;;0.13;;
1751;SDS011;873;47.696;8.068;2023-04-22T04:50:18;0.77;;;0.63;;
1751;SDS011;873;47.696;8.068;2023-04-22T04:52:45;0.37;;;0.33;;
1751;SDS011;873;47.696;8.068;2023-04-22T04:55:13;0.93;;;0.50;;
1751;SDS011;873;47.696;8.068;2023-04-22T04:57:39;0.23;;;0.23;;
1751;SDS011;873;47.696;8.068;2023-04-22T05:00:05;0.10;;;0.10;;
1751;SDS011;873;47.696;8.068;2023-04-22T05:02:32;0.13;;;0.10;;
1751;SDS011;873;47.696;8.068;2023-04-22T05:04:57;0.30;;;0.13;;
1751;SDS011;873;47.696;8.068;2023-04-22T05:07:23;0.60;;;0.47;;
1751;SDS011;873;47.696;8.068;2023-04-22T05:09:48;3.80;;;0.70;;
1751;SDS011;873;47.696;8.068;2023-04-22T05:12:14;1.23;;;0.57;;
1751;SDS011;873;47.696;8.068;2023-04-22T05:14:39;1.37;;;1.07;;
1751;SDS011;873;47.696;8.068;2023-04-22T05:17:05;2.30;;;0.93;;
1751;SDS011;873;47.696;8.068;2023-04-22T05:19:32;2.60;;;0.73;;
1751;SDS011;873;47.696;8.068;2023-04-22T05:21:57;1.67;;;0.43;;
1751;SDS011;873;47.696;8.068;2023-04-22T05:24:23;2.40;;;0.50;;
1751;SDS011;873;47.696;8.068;2023-04-22T05:26:48;1.13;;;0.60;;
1751;SDS011;873;47.696;8.068;2023-04-22T05:29:14;0.27;;;0.27;;
1751;SDS011;873;47.696;8.068;2023-04-22T05:31:39;0.30;;;0.30;;
1751;SDS011;873;47.696;8.068;2023-04-22T05:34:05;0.10;;;0.10;;
1751;SDS011;873;47.696;8.068;2023-04-22T05:36:30;1.90;;;0.07;;
1751;SDS011;873;47.696;8.068;2023-04-22T05:38:56;0.10;;;0.10;;
1751;SDS011;873;47.696;8.068;2023-04-22T05:41:21;0.30;;;0.23;;
1751;SDS011;873;47.696;8.068;2023-04-22T05:43:47;0.40;;;0.13;;
1751;SDS011;873;47.696;8.068;2023-04-22T05:46:12;0.30;;;0.30;;
1751;SDS011;873;47.696;8.068;2023-04-22T05:48:38;0.23;;;0.23;;
1751;SDS011;873;47.696;8.068;2023-04-22T05:51:03;0.97;;;0.50;;
1751;SDS011;873;47.696;8.068;2023-04-22T05:53:29;0.30;;;0.20;;
1751;SDS011;873;47.696;8.068;2023-04-22T05:55:54;0.13;;;0.13;;
1751;SDS011;873;47.696;8.068;2023-04-22T05:58:20;0.50;;;0.30;;
1751;SDS011;873;47.696;8.068;2023-04-22T06:00:45;0.13;;;0.13;;
1751;SDS011;873;47.696;8.068;2023-04-22T06:03:11;0.23;;;0.23;;
1751;SDS011;873;47.696;8.068;2023-04-22T06:05:36;0.40;;;0.20;;
1751;SDS011;873;47.696;8.068;2023-04-22T06:08:02;0.77;;;0.20;;
1751;SDS011;873;47.696;8.068;2023-04-22T06:10:27;1.33;;;0.50;;
1751;SDS011;873;47.696;8.068;2023-04-22T06:12:53;0.10;;;0.10;;
1751;SDS011;873;47.696;8.068;2023-04-22T06:15:18;0.80;;;0.30;;
1751;SDS011;873;47.696;8.068;2023-04-22T06:17:44;1.70;;;0.40;;
1751;SDS011;873;47.696;8.068;2023-04-22T06:20:10;0.50;;;0.37;;
1751;SDS011;873;47.696;8.068;2023-04-22T06:22:36;0.13;;;0.13;;
1751;SDS011;873;47.696;8.068;2023-04-22T06:25:02;0.10;;;0.10;;
1751;SDS011;873;47.696;8.068;2023-04-22T06:27:27;0.30;;;0.20;;
1751;SDS011;873;47.696;8.068;2023-04-22T06:29:53;1.03;;;0.33;;
1751;SDS011;873;47.696;8.068;2023-04-22T06:32:18;0.20;;;0.10;;
1751;SDS011;873;47.696;8.068;2023-04-22T06:34:44;0.20;;;0.20;;
1751;SDS011;873;47.696;8.068;2023-04-22T06:37:09;0.20;;;0.10;;
1751;SDS011;873;47.696;8.068;2023-04-22T06:39:35;0.20;;;0.20;;
1751;SDS011;873;47.696;8.068;2023-04-22T06:42:00;0.20;;;0.20;;
1751;SDS011;873;47.696;8.068;2023-04-22T06:44:27;1.30;;;0.20;;
1751;SDS011;873;47.696;8.068;2023-04-22T06:46:53;0.17;;;0.17;;
1751;SDS011;873;47.696;8.068;2023-04-22T06:49:19;0.70;;;0.30;;
1751;SDS011;873;47.696;8.068;2023-04-22T06:51:45;0.70;;;0.33;;
1751;SDS011;873;47.696;8.068;2023-04-22T06:54:10;0.40;;;0.20;;
1751;SDS011;873;47.696;8.068;2023-04-22T06:56:36;0.20;;;0.20;;
1751;SDS011;873;47.696;8.068;2023-04-22T06:59:01;0.20;;;0.20;;
1751;SDS011;873;47.696;8.068;2023-04-22T07:01:26;1.20;;;0.20;;
1751;SDS011;873;47.696;8.068;2023-04-22T07:03:52;0.00;;;0.00;;
1751;SDS011;873;47.696;8.068;2023-04-22T07:06:17;0.20;;;0.20;;
1751;SDS011;873;47.696;8.068;2023-04-22T07:08:43;0.50;;;0.30;;
1751;SDS011;873;47.696;8.068;2023-04-22T07:11:09;1.13;;;0.60;;
1751;SDS011;873;47.696;8.068;2023-04-22T07:13:34;1.03;;;0.50;;
1751;SDS011;873;47.696;8.068;2023-04-22T07:16:00;1.10;;;0.40;;
1751;SDS011;873;47.696;8.068;2023-04-22T07:18:26;0.30;;;0.30;;
1751;SDS011;873;47.696;8.068;2023-04-22T07:20:52;0.33;;;0.30;;
1751;SDS011;873;47.696;8.068;2023-04-22T07:23:17;0.33;;;0.20;;
1751;SDS011;873;47.696;8.068;2023-04-22T07:25:43;0.40;;;0.27;;
1751;SDS011;873;47.696;8.068;2023-04-22T07:28:08;0.13;;;0.10;;
1751;SDS011;873;47.696;8.068;2023-04-22T07:30:34;0.20;;;0.20;;
1751;SDS011;873;47.696;8.068;2023-04-22T07:32:59;0.20;;;0.20;;
1751;SDS011;873;47.696;8.068;2023-04-22T07:35:25;0.20;;;0.17;;
1751;SDS011;873;47.696;8.068;2023-04-22T07:37:52;0.37;;;0.10;;
1751;SDS011;873;47.696;8.068;2023-04-22T07:40:18;0.47;;;0.20;;
1751;SDS011;873;47.696;8.068;2023-04-22T07:42:44;0.17;;;0.10;;
1751;SDS011;873;47.696;8.068;2023-04-22T07:45:09;0.40;;;0.20;;
1751;SDS011;873;47.696;8.068;2023-04-22T07:47:35;0.20;;;0.20;;
1751;SDS011;873;47.696;8.068;2023-04-22T07:50:01;0.30;;;0.20;;
1751;SDS011;873;47.696;8.068;2023-04-22T07:52:27;0.20;;;0.20;;
1751;SDS011;873;47.696;8.068;2023-04-22T07:54:54;0.10;;;0.10;;
1751;SDS011;873;47.696;8.068;2023-04-22T07:57:20;0.30;;;0.20;;
1751;SDS011;873;47.696;8.068;2023-04-22T07:59:46;0.37;;;0.30;;
1751;SDS011;873;47.696;8.068;2023-04-22T08:02:13;0.10;;;0.10;;
1751;SDS011;873;47.696;8.068;2023-04-22T08:04:38;0.10;;;0.10;;
1751;SDS011;873;47.696;8.068;2023-04-22T08:07:04;0.37;;;0.17;;
1751;SDS011;873;47.696;8.068;2023-04-22T08:09:30;0.27;;;0.13;;
1751;SDS011;873;47.696;8.068;2023-04-22T08:11:55;0.20;;;0.20;;
1751;SDS011;873;47.696;8.068;2023-04-22T08:14:22;0.17;;;0.10;;
1751;SDS011;873;47.696;8.068;2023-04-22T08:16:47;0.13;;;0.13;;
1751;SDS011;873;47.696;8.068;2023-04-22T08:19:15;0.23;;;0.17;;
1751;SDS011;873;47.696;8.068;2023-04-22T08:21:40;0.30;;;0.17;;
1751;SDS011;873;47.696;8.068;2023-04-22T08:24:06;1.07;;;0.10;;
1751;SDS011;873;47.696;8.068;2023-04-22T08:26:32;0.00;;;0.00;;
1751;SDS011;873;47.696;8.068;2023-04-22T08:28:58;0.20;;;0.20;;
1751;SDS011;873;47.696;8.068;2023-04-22T08:31:26;0.53;;;0.10;;
1751;SDS011;873;47.696;8.068;2023-04-22T08:33:53;0.00;;;0.00;;
1751;SDS011;873;47.696;8.068;2023-04-22T08:36:18;0.20;;;0.20;;
1751;SDS011;873;47.696;8.068;2023-04-22T08:38:51;0.17;;;0.17;;
1751;SDS011;873;47.696;8.068;2023-04-22T08:41:18;0.43;;;0.20;;
1751;SDS011;873;47.696;8.068;2023-04-22T08:43:46;0.20;;;0.20;;
1751;SDS011;873;47.696;8.068;2023-04-22T08:46:12;0.50;;;0.20;;
1751;SDS011;873;47.696;8.068;2023-04-22T08:48:39;0.10;;;0.10;;
1751;SDS011;873;47.696;8.068;2023-04-22T08:51:05;0.10;;;0.10;;
1751;SDS011;873;47.696;8.068;2023-04-22T08:53:32;0.10;;;0.10;;
1751;SDS011;873;47.696;8.068;2023-04-22T08:55:58;0.30;;;0.27;;
1751;SDS011;873;47.696;8.068;2023-04-22T08:58:24;0.90;;;0.60;;
1751;SDS011;873;47.696;8.068;2023-04-22T09:00:50;2.93;;;1.23;;
1751;SDS011;873;47.696;8.068;2023-04-22T09:03:16;4.97;;;1.97;;
1751;SDS011;873;47.696;8.068;2023-04-22T09:05:42;6.20;;;3.07;;
1751;SDS011;873;47.696;8.068;2023-04-22T09:08:08;2.93;;;1.13;;
1751;SDS011;873;47.696;8.068;2023-04-22T09:10:36;3.10;;;1.70;;
1751;SDS011;873;47.696;8.068;2023-04-22T09:13:02;1.30;;;1.20;;
1751;SDS011;873;47.696;8.068;2023-04-22T09:15:29;0.60;;;0.60;;
1751;SDS011;873;47.696;8.068;2023-04-22T09:17:55;2.50;;;0.80;;
1751;SDS011;873;47.696;8.068;2023-04-22T09:20:26;1.20;;;0.80;;
1751;SDS011;873;47.696;8.068;2023-04-22T09:22:52;0.90;;;0.70;;
1751;SDS011;873;47.696;8.068;2023-04-22T09:25:19;1.17;;;1.00;;
1751;SDS011;873;47.696;8.068;2023-04-22T09:27:47;1.90;;;0.60;;
1751;SDS011;873;47.696;8.068;2023-04-22T09:30:14;0.83;;;0.63;;
1751;SDS011;873;47.696;8.068;2023-04-22T09:32:39;1.37;;;0.83;;
1751;SDS011;873;47.696;8.068;2023-04-22T09:35:05;1.57;;;0.87;;
1751;SDS011;873;47.696;8.068;2023-04-22T09:37:31;1.73;;;1.20;;
1751;SDS011;873;47.696;8.068;2023-04-22T09:39:57;4.53;;;2.13;;
1751;SDS011;873;47.696;8.068;2023-04-22T09:42:23;2.20;;;1.57;;
1751;SDS011;873;47.696;8.068;2023-04-22T09:44:49;3.87;;;1.90;;
1751;SDS011;873;47.696;8.068;2023-04-22T09:47:17;2.90;;;1.53;;
1751;SDS011;873;47.696;8.068;2023-04-22T09:49:45;2.60;;;2.27;;
1751;SDS011;873;47.696;8.068;2023-04-22T09:52:19;3.50;;;2.37;;
1751;SDS011;873;47.696;8.068;2023-04-22T09:54:48;1.87;;;1.47;;
1751;SDS011;873;47.696;8.068;2023-04-22T09:57:15;2.00;;;1.40;;
1751;SDS011;873;47.696;8.068;2023-04-22T09:59:41;2.83;;;1.10;;
1751;SDS011;873;47.696;8.068;2023-04-22T10:02:07;1.27;;;1.10;;
1751;SDS011;873;47.696;8.068;2023-04-22T10:04:33;2.40;;;0.90;;
1751;SDS011;873;47.696;8.068;2023-04-22T10:06:59;0.40;;;0.30;;
1751;SDS011;873;47.696;8.068;2023-04-22T10:09:26;0.93;;;0.77;;
1751;SDS011;873;47.696;8.068;2023-04-22T10:11:53;0.73;;;0.40;;
1751;SDS011;873;47.696;8.068;2023-04-22T10:14:21;1.07;;;0.60;;
1751;SDS011;873;47.696;8.068;2023-04-22T10:16:47;0.80;;;0.70;;
1751;SDS011;873;47.696;8.068;2023-04-22T10:19:14;0.47;;;0.43;;
1751;SDS011;873;47.696;8.068;2023-04-22T10:21:42;0.80;;;0.50;;
1751;SDS011;873;47.696;8.068;2023-04-22T10:24:13;0.40;;;0.40;;
1751;SDS011;873;47.696;8.068;2023-04-22T10:29:19;0.50;;;0.40;;
1751;SDS011;873;47.696;8.068;2023-04-22T10:31:50;0.40;;;0.40;;
1751;SDS011;873;47.696;8.068;2023-04-22T10:34:27;0.47;;;0.47;;
1751;SDS011;873;47.696;8.068;2023-04-22T10:36:55;0.43;;;0.43;;
1751;SDS011;873;47.696;8.068;2023-04-22T10:39:24;0.87;;;0.60;;
1751;SDS011;873;47.696;8.068;2023-04-22T10:41:51;0.70;;;0.60;;
1751;SDS011;873;47.696;8.068;2023-04-22T10:44:19;1.60;;;0.67;;
1751;SDS011;873;47.696;8.068;2023-04-22T10:49:28;1.03;;;0.60;;
1751;SDS011;873;47.696;8.068;2023-04-22T10:51:55;0.90;;;0.90;;
1751;SDS011;873;47.696;8.068;2023-04-22T10:59:41;0.27;;;0.27;;
1751;SDS011;873;47.696;8.068;2023-04-22T11:02:10;1.40;;;0.57;;
1751;SDS011;873;47.696;8.068;2023-04-22T11:04:38;0.80;;;0.40;;
1751;SDS011;873;47.696;8.068;2023-04-22T11:10:11;0.50;;;0.40;;
1751;SDS011;873;47.696;8.068;2023-04-22T11:12:54;0.80;;;0.50;;
1751;SDS011;873;47.696;8.068;2023-04-22T11:15:20;0.60;;;0.60;;
1751;SDS011;873;47.696;8.068;2023-04-22T11:17:49;0.70;;;0.70;;
1751;SDS011;873;47.696;8.068;2023-04-22T11:20:16;1.40;;;0.80;;
1751;SDS011;873;47.696;8.068;2023-04-22T11:22:44;0.40;;;0.40;;
1751;SDS011;873;47.696;8.068;2023-04-22T11:25:10;0.40;;;0.30;;
1751;SDS011;873;47.696;8.068;2023-04-22T11:27:37;0.47;;;0.47;;
1751;SDS011;873;47.696;8.068;2023-04-22T11:32:42;0.83;;;0.70;;
1751;SDS011;873;47.696;8.068;2023-04-22T11:35:11;0.30;;;0.30;;
1751;SDS011;873;47.696;8.068;2023-04-22T11:37:39;1.80;;;0.60;;
1751;SDS011;873;47.696;8.068;2023-04-22T11:40:08;0.73;;;0.70;;
1751;SDS011;873;47.696;8.068;2023-04-22T11:42:35;0.70;;;0.70;;
1751;SDS011;873;47.696;8.068;2023-04-22T11:45:01;0.30;;;0.20;;
1751;SDS011;873;47.696;8.068;2023-04-22T11:47:28;2.00;;;0.50;;
1751;SDS011;873;47.696;8.068;2023-04-22T11:49:55;0.30;;;0.30;;
1751;SDS011;873;47.696;8.068;2023-04-22T11:52:23;0.60;;;0.50;;
1751;SDS011;873;47.696;8.068;2023-04-22T11:54:50;0.63;;;0.53;;
1751;SDS011;873;47.696;8.068;2023-04-22T11:57:16;0.70;;;0.40;;
1751;SDS011;873;47.696;8.068;2023-04-22T11:59:42;0.67;;;0.47;;
1751;SDS011;873;47.696;8.068;2023-04-22T12:02:08;0.30;;;0.30;;
1751;SDS011;873;47.696;8.068;2023-04-22T12:04:37;0.63;;;0.57;;
1751;SDS011;873;47.696;8.068;2023-04-22T12:07:03;1.20;;;0.60;;
1751;SDS011;873;47.696;8.068;2023-04-22T12:09:29;0.70;;;0.70;;
1751;SDS011;873;47.696;8.068;2023-04-22T12:11:55;0.70;;;0.40;;
1751;SDS011;873;47.696;8.068;2023-04-22T12:14:26;1.70;;;0.70;;
1751;SDS011;873;47.696;8.068;2023-04-22T12:16:56;0.53;;;0.40;;
1751;SDS011;873;47.696;8.068;2023-04-22T12:19:25;0.47;;;0.40;;
1751;SDS011;873;47.696;8.068;2023-04-22T12:21:54;1.17;;;0.60;;
1751;SDS011;873;47.696;8.068;2023-04-22T12:24:25;1.30;;;0.57;;
1751;SDS011;873;47.696;8.068;2023-04-22T12:26:52;0.30;;;0.27;;
1751;SDS011;873;47.696;8.068;2023-04-22T12:29:25;1.00;;;0.40;;
1751;SDS011;873;47.696;8.068;2023-04-22T12:31:51;0.40;;;0.40;;
1751;SDS011;873;47.696;8.068;2023-04-22T12:34:17;0.50;;;0.50;;
1751;SDS011;873;47.696;8.068;2023-04-22T12:36:42;0.70;;;0.40;;
1751;SDS011;873;47.696;8.068;2023-04-22T12:39:08;1.07;;;0.40;;
1751;SDS011;873;47.696;8.068;2023-04-22T12:41:34;0.10;;;0.10;;
1751;SDS011;873;47.696;8.068;2023-04-22T12:44:00;0.33;;;0.33;;
1751;SDS011;873;47.696;8.068;2023-04-22T12:46:25;0.43;;;0.30;;
1751;SDS011;873;47.696;8.068;2023-04-22T12:48:51;0.20;;;0.20;;
1751;SDS011;873;47.696;8.068;2023-04-22T12:51:16;0.30;;;0.30;;
1751;SDS011;873;47.696;8.068;2023-04-22T12:53:42;0.30;;;0.10;;
1751;SDS011;873;47.696;8.068;2023-04-22T12:56:08;0.10;;;0.10;;
1751;SDS011;873;47.696;8.068;2023-04-22T12:58:33;0.63;;;0.30;;
1751;SDS011;873;47.696;8.068;2023-04-22T13:00:59;0.60;;;0.30;;
1751;SDS011;873;47.696;8.068;2023-04-22T13:03:24;0.27;;;0.27;;
1751;SDS011;873;47.696;8.068;2023-04-22T13:05:50;0.50;;;0.30;;
1751;SDS011;873;47.696;8.068;2023-04-22T13:08:16;0.30;;;0.30;;
1751;SDS011;873;47.696;8.068;2023-04-22T13:10:42;0.30;;;0.30;;
1751;SDS011;873;47.696;8.068;2023-04-22T13:13:07;0.60;;;0.20;;
1751;SDS011;873;47.696;8.068;2023-04-22T13:15:33;0.43;;;0.20;;
1751;SDS011;873;47.696;8.068;2023-04-22T13:17:59;0.40;;;0.23;;
1751;SDS011;873;47.696;8.068;2023-04-22T13:20:24;0.10;;;0.10;;
1751;SDS011;873;47.696;8.068;2023-04-22T13:22:50;0.30;;;0.20;;
1751;SDS011;873;47.696;8.068;2023-04-22T13:25:15;0.87;;;0.30;;
1751;SDS011;873;47.696;8.068;2023-04-22T13:27:41;0.30;;;0.20;;
1751;SDS011;873;47.696;8.068;2023-04-22T13:30:06;0.30;;;0.30;;
1751;SDS011;873;47.696;8.068;2023-04-22T13:32:32;0.20;;;0.20;;
1751;SDS011;873;47.696;8.068;2023-04-22T13:34:58;0.20;;;0.20;;
1751;SDS011;873;47.696;8.068;2023-04-22T13:37:24;0.57;;;0.20;;
1751;SDS011;873;47.696;8.068;2023-04-22T13:39:49;1.10;;;0.53;;
1751;SDS011;873;47.696;8.068;2023-04-22T13:42:15;0.30;;;0.30;;
1751;SDS011;873;47.696;8.068;2023-04-22T13:44:41;0.30;;;0.27;;
1751;SDS011;873;47.696;8.068;2023-04-22T13:47:07;0.40;;;0.40;;
1751;SDS011;873;47.696;8.068;2023-04-22T13:49:32;0.20;;;0.20;;
1751;SDS011;873;47.696;8.068;2023-04-22T13:51:58;0.30;;;0.30;;
1751;SDS011;873;47.696;8.068;2023-04-22T13:54:23;0.33;;;0.33;;
1751;SDS011;873;47.696;8.068;2023-04-22T13:56:50;0.40;;;0.30;;
1751;SDS011;873;47.696;8.068;2023-04-22T13:59:15;0.60;;;0.23;;
1751;SDS011;873;47.696;8.068;2023-04-22T14:01:41;0.33;;;0.33;;
1751;SDS011;873;47.696;8.068;2023-04-22T14:04:07;0.10;;;0.10;;
1751;SDS011;873;47.696;8.068;2023-04-22T14:06:32;0.43;;;0.40;;
1751;SDS011;873;47.696;8.068;2023-04-22T14:08:58;0.10;;;0.10;;
1751;SDS011;873;47.696;8.068;2023-04-22T14:11:24;1.13;;;0.30;;
1751;SDS011;873;47.696;8.068;2023-04-22T14:13:49;0.30;;;0.30;;
1751;SDS011;873;47.696;8.068;2023-04-22T14:16:15;0.30;;;0.30;;
1751;SDS011;873;47.696;8.068;2023-04-22T14:18:42;0.20;;;0.20;;
1751;SDS011;873;47.696;8.068;2023-04-22T14:21:09;0.33;;;0.20;;
1751;SDS011;873;47.696;8.068;2023-04-22T14:23:36;0.30;;;0.30;;
1751;SDS011;873;47.696;8.068;2023-04-22T14:26:03;0.40;;;0.40;;
1751;SDS011;873;47.696;8.068;2023-04-22T14:28:29;0.47;;;0.40;;
1751;SDS011;873;47.696;8.068;2023-04-22T14:30:54;0.53;;;0.40;;
1751;SDS011;873;47.696;8.068;2023-04-22T14:33:20;0.30;;;0.10;;
1751;SDS011;873;47.696;8.068;2023-04-22T14:35:50;1.47;;;0.30;;
1751;SDS011;873;47.696;8.068;2023-04-22T14:38:16;0.33;;;0.33;;
1751;SDS011;873;47.696;8.068;2023-04-22T14:40:42;0.50;;;0.43;;
1751;SDS011;873;47.696;8.068;2023-04-22T14:43:07;0.27;;;0.27;;
1751;SDS011;873;47.696;8.068;2023-04-22T14:45:33;0.20;;;0.10;;
1751;SDS011;873;47.696;8.068;2023-04-22T14:47:58;0.30;;;0.30;;
1751;SDS011;873;47.696;8.068;2023-04-22T14:50:24;0.67;;;0.47;;
1751;SDS011;873;47.696;8.068;2023-04-22T14:52:51;2.33;;;0.37;;
1751;SDS011;873;47.696;8.068;2023-04-22T14:55:17;0.23;;;0.10;;
1751;SDS011;873;47.696;8.068;2023-04-22T14:57:43;0.30;;;0.20;;
1751;SDS011;873;47.696;8.068;2023-04-22T15:00:09;0.20;;;0.20;;
1751;SDS011;873;47.696;8.068;2023-04-22T15:02:35;0.20;;;0.20;;
1751;SDS011;873;47.696;8.068;2023-04-22T15:05:01;0.17;;;0.10;;
1751;SDS011;873;47.696;8.068;2023-04-22T15:07:27;0.63;;;0.33;;
1751;SDS011;873;47.696;8.068;2023-04-22T15:09:52;0.20;;;0.10;;
1751;SDS011;873;47.696;8.068;2023-04-22T15:12:18;0.57;;;0.30;;
1751;SDS011;873;47.696;8.068;2023-04-22T15:14:44;0.13;;;0.13;;
1751;SDS011;873;47.696;8.068;2023-04-22T15:17:09;0.60;;;0.20;;
1751;SDS011;873;47.696;8.068;2023-04-22T15:19:35;0.10;;;0.10;;
1751;SDS011;873;47.696;8.068;2023-04-22T15:22:01;0.43;;;0.30;;
1751;SDS011;873;47.696;8.068;2023-04-22T15:24:27;0.37;;;0.30;;
1751;SDS011;873;47.696;8.068;2023-04-22T15:26:52;0.17;;;0.17;;
1751;SDS011;873;47.696;8.068;2023-04-22T15:29:19;0.37;;;0.20;;
1751;SDS011;873;47.696;8.068;2023-04-22T15:31:45;0.10;;;0.10;;
1751;SDS011;873;47.696;8.068;2023-04-22T15:34:11;0.97;;;0.30;;
1751;SDS011;873;47.696;8.068;2023-04-22T15:36:37;0.30;;;0.10;;
1751;SDS011;873;47.696;8.068;2023-04-22T15:39:03;0.20;;;0.10;;